Airfield :
LOGIN :

Register | Disclaimer

   EN    FR    IT 

 










Legend :    VFR   Marginal VFR   IFR   Intensive IFR   Very Intensive IFR
Visi :
Ceiling :
>= 8 km
>= 3000ft
5 to 8 km
1000 to 3000 ft
1500m to 5 km
500 to 1000 ft
800 to 1500m
200 to 500 ft
< 800m
< 200 ft
Symbols :   Thunderstorms  Fog  Heavy snow  Heavy precipitations  Wind > 20 kt
SIGMETs :     Misc.  Thunderstorms  Icing  Turbulence  Mountain Waves  Volcanic Ashes







- Airport Elevation : 306 ft
- IATA code : EMA
- Download approach charts


EGNX - Nottingham East Midlands

CURRENT METAR :
  • 170250Z 26014KT 9999 FEW038 04/04 Q1009

EXPIRED METARs :
  • 170220Z 26010KT 9999 FEW035 05/04 Q1008
  • 170150Z 26012KT 9999 SCT019 BKN033 05/04 Q1007
  • 170120Z 27012KT 9999 BKN023 05/05 Q1007
  • 170050Z 27014KT 9999 FEW007 BKN023 05/05 Q1006
  • 170020Z 26014KT 9999 SCT007 OVC022 06/06 Q1006

TAF TAF EGNX
Valid from the 17 at 00:00 until the 18 at 00:00 UTC


162258Z 1700/1724 23007KT 9999 SCT025
PROB40
TEMPO 1700/1704 8000 -RA BKN008
BECMG 1712/1715 17010KT
TEMPO 1718/1724 18015G25KT
PROB40
TEMPO 1720/1724 8000 BKN012
ATIS : +44 1332 852 852 (ext 3201)
No reported NOTAMs for that airfield.



MET'MAP, your aeronautical weather chart ! - Copyright ORBIFLY December 2007 - Disclaimer

ORBIFLY MET'MAP TEAM :

Programming & Development : Alexandra Zaïnal
Concept & Development : Baudouin d'Aumeries
Co-Development & Prog : Marc-Olivier Méhu
Technical & hardware support : Manuel Goepfert

Contact : metmap@orbifly.com




SOURCES & CREDITS :

   NOAA